Time;durP1;ratioP1;P1;durP2;ratioP2;P2;SDS_P1;SDS_P2;PMS_P1;PMS_P2;Temp;Humidity;BMP_temperature;BMP_pressure;BME280_temperature;BME280_humidity;BME280_pressure;Samples;Min_cycle;Max_cycle;Signal;HPM_P1;HPM_P2
2021/03/26 00:02:17;;;;;;;14.02;3.50;;;;;;;;;;5009783;28;20073;-77
2021/03/26 00:04:43;;;;;;;9.50;3.38;;;;;;;;;;5012213;28;20046;-77
2021/03/26 00:07:10;;;;;;;10.20;3.70;;;;;;;;;;5004362;28;20046;-77
2021/03/26 00:09:37;;;;;;;17.05;4.88;;;;;;;;;;5010160;28;20041;-77
2021/03/26 00:12:06;;;;;;;13.15;4.32;;;;;;;;;;5012477;28;20062;-77
2021/03/26 00:14:33;;;;;;;10.93;3.42;;;;;;;;;;5010110;28;20049;-77
2021/03/26 00:16:59;;;;;;;10.40;3.38;;;;;;;;;;5012244;28;20389;-77
2021/03/26 00:19:25;;;;;;;12.70;3.78;;;;;;;;;;5009235;28;20659;-77
2021/03/26 00:21:51;;;;;;;8.88;3.65;;;;;;;;;;5004300;28;20161;-77
2021/03/26 00:24:18;;;;;;;10.82;4.10;;;;;;;;;;5023075;28;20046;-78
2021/03/26 00:26:44;;;;;;;14.52;4.32;;;;;;;;;;5002437;28;20102;-77
2021/03/26 00:29:11;;;;;;;17.50;4.68;;;;;;;;;;5007922;28;20133;-77
2021/03/26 00:31:39;;;;;;;14.07;4.45;;;;;;;;;;5009734;28;20054;-77
2021/03/26 00:34:06;;;;;;;16.00;4.40;;;;;;;;;;5004229;28;20069;-77
2021/03/26 00:36:34;;;;;;;10.52;4.65;;;;;;;;;;4999109;28;20046;-77
2021/03/26 00:39:00;;;;;;;13.52;4.68;;;;;;;;;;5007712;28;20100;-77
2021/03/26 00:41:27;;;;;;;17.58;4.90;;;;;;;;;;5011410;28;20042;-77
2021/03/26 00:43:53;;;;;;;11.25;4.90;;;;;;;;;;5007703;28;20046;-77
2021/03/26 00:46:19;;;;;;;12.65;4.90;;;;;;;;;;5003737;28;20049;-77
2021/03/26 00:48:46;;;;;;;13.95;4.95;;;;;;;;;;5011233;28;20069;-77
2021/03/26 00:51:12;;;;;;;10.75;4.63;;;;;;;;;;5009930;28;20156;-77
2021/03/26 00:53:38;;;;;;;14.65;5.65;;;;;;;;;;5010921;28;20073;-77
2021/03/26 00:56:06;;;;;;;16.08;5.30;;;;;;;;;;5011743;28;20072;-77
2021/03/26 00:58:32;;;;;;;15.05;5.85;;;;;;;;;;5005020;28;20116;-77
2021/03/26 01:00:59;;;;;;;11.32;5.45;;;;;;;;;;5005208;28;20583;-77
2021/03/26 01:03:27;;;;;;;17.92;5.57;;;;;;;;;;5009229;28;20048;-77
2021/03/26 01:05:55;;;;;;;16.05;5.68;;;;;;;;;;5010705;28;20480;-77
2021/03/26 01:08:22;;;;;;;15.73;6.43;;;;;;;;;;5008404;28;20117;-77
2021/03/26 01:10:51;;;;;;;14.38;5.65;;;;;;;;;;5004336;28;20136;-77
2021/03/26 01:13:18;;;;;;;14.13;5.78;;;;;;;;;;5010675;28;20064;-77
2021/03/26 01:15:45;;;;;;;19.98;6.63;;;;;;;;;;5006938;28;20050;-77
2021/03/26 01:18:17;;;;;;;13.30;6.00;;;;;;;;;;5009851;28;20469;-77
2021/03/26 01:20:44;;;;;;;13.90;6.30;;;;;;;;;;5009034;28;20104;-77
2021/03/26 01:23:10;;;;;;;16.85;6.90;;;;;;;;;;5009984;28;20401;-77
2021/03/26 01:25:40;;;;;;;19.67;7.53;;;;;;;;;;5009558;28;20050;-77
2021/03/26 01:28:07;;;;;;;18.38;7.32;;;;;;;;;;5002096;28;20141;-77
2021/03/26 01:30:33;;;;;;;16.85;7.22;;;;;;;;;;5000089;28;20038;-77
2021/03/26 01:33:00;;;;;;;20.75;8.30;;;;;;;;;;5001765;28;20410;-77
2021/03/26 01:35:27;;;;;;;17.85;8.00;;;;;;;;;;4996986;28;20355;-78
2021/03/26 01:37:54;;;;;;;15.85;7.38;;;;;;;;;;5002118;28;20057;-78
2021/03/26 01:40:23;;;;;;;16.20;7.05;;;;;;;;;;5001648;28;20072;-77
2021/03/26 01:42:50;;;;;;;14.52;6.63;;;;;;;;;;5000034;28;20033;-77
2021/03/26 01:45:24;;;;;;;15.73;7.55;;;;;;;;;;4998534;28;20033;-77
2021/03/26 01:47:52;;;;;;;20.17;7.10;;;;;;;;;;4995907;28;20103;-77
2021/03/26 01:50:21;;;;;;;19.45;6.80;;;;;;;;;;4998843;28;20050;-77
2021/03/26 01:52:47;;;;;;;14.80;6.75;;;;;;;;;;4995201;28;20076;-77
2021/03/26 01:55:21;;;;;;;15.82;6.78;;;;;;;;;;5004516;28;20057;-77
2021/03/26 01:57:48;;;;;;;14.48;7.10;;;;;;;;;;4996995;28;20111;-77
2021/03/26 02:00:21;;;;;;;16.23;7.38;;;;;;;;;;4994387;28;20042;-77
2021/03/26 02:02:48;;;;;;;14.88;6.15;;;;;;;;;;4995955;28;20444;-77
2021/03/26 02:05:16;;;;;;;17.95;7.07;;;;;;;;;;5001545;28;20118;-72
2021/03/26 02:07:42;;;;;;;11.82;5.97;;;;;;;;;;4993855;28;20073;-77
2021/03/26 02:10:08;;;;;;;15.95;5.88;;;;;;;;;;4997861;28;20053;-78
2021/03/26 02:12:36;;;;;;;19.88;6.32;;;;;;;;;;4993979;28;20042;-77
2021/03/26 02:15:07;;;;;;;13.13;6.63;;;;;;;;;;4994965;28;20085;-77
2021/03/26 02:17:34;;;;;;;16.90;6.00;;;;;;;;;;4993845;28;20097;-78
2021/03/26 02:20:10;;;;;;;16.00;5.63;;;;;;;;;;4997186;28;20069;-77
2021/03/26 02:22:36;;;;;;;14.48;5.72;;;;;;;;;;4997075;28;20215;-78
2021/03/26 02:25:05;;;;;;;15.85;5.75;;;;;;;;;;5002587;28;20074;-77
2021/03/26 02:27:38;;;;;;;16.55;5.65;;;;;;;;;;5007686;28;20042;-78
2021/03/26 02:30:13;;;;;;;17.45;5.22;;;;;;;;;;5000830;28;20050;-78
2021/03/26 02:32:40;;;;;;;12.32;5.30;;;;;;;;;;4999910;28;20424;-78
2021/03/26 02:35:15;;;;;;;11.80;6.10;;;;;;;;;;5011005;28;20042;-78
2021/03/26 02:37:53;;;;;;;14.85;5.32;;;;;;;;;;5004855;28;20512;-78
2021/03/26 02:40:27;;;;;;;11.60;4.95;;;;;;;;;;5010651;28;20465;-78
2021/03/26 02:42:57;;;;;;;13.23;4.60;;;;;;;;;;5012558;28;20041;-78
2021/03/26 02:45:33;;;;;;;19.80;6.18;;;;;;;;;;5004369;28;20046;-77
2021/03/26 02:48:02;;;;;;;11.65;4.72;;;;;;;;;;5011334;28;20507;-78
2021/03/26 02:50:50;;;;;;;11.73;4.70;;;;;;;;;;5004629;28;20061;-78
2021/03/26 02:53:22;;;;;;;6.88;3.67;;;;;;;;;;5012299;28;20046;-78
2021/03/26 02:55:52;;;;;;;15.02;4.28;;;;;;;;;;5009390;28;20508;-78
2021/03/26 02:58:20;;;;;;;11.75;3.47;;;;;;;;;;5004977;28;20173;-78
2021/03/26 03:00:50;;;;;;;13.98;4.93;;;;;;;;;;5011256;28;20076;-77
2021/03/26 03:03:20;;;;;;;12.70;4.15;;;;;;;;;;5005477;28;20117;-77
2021/03/26 03:05:49;;;;;;;10.90;4.13;;;;;;;;;;4998857;28;20047;-78
2021/03/26 03:08:19;;;;;;;14.70;4.70;;;;;;;;;;4999222;28;20411;-77
2021/03/26 03:10:54;;;;;;;13.77;4.35;;;;;;;;;;5000608;28;20634;-78
2021/03/26 03:13:25;;;;;;;10.32;4.10;;;;;;;;;;4997926;28;20141;-78
2021/03/26 03:15:58;;;;;;;10.68;4.35;;;;;;;;;;5026608;28;20042;-78
2021/03/26 03:18:27;;;;;;;12.68;4.53;;;;;;;;;;5000137;28;20062;-78
2021/03/26 03:20:58;;;;;;;12.75;4.38;;;;;;;;;;5001603;28;20125;-78
2021/03/26 03:23:28;;;;;;;11.32;4.57;;;;;;;;;;5006400;28;20056;-78
2021/03/26 03:26:00;;;;;;;14.95;5.00;;;;;;;;;;4999217;28;20068;-78
2021/03/26 03:28:30;;;;;;;15.35;5.60;;;;;;;;;;4997482;28;20045;-78
2021/03/26 03:31:14;;;;;;;16.73;5.05;;;;;;;;;;4998405;28;20068;-77
2021/03/26 03:33:46;;;;;;;13.57;5.28;;;;;;;;;;4999629;28;20066;-78
2021/03/26 03:36:16;;;;;;;15.82;6.20;;;;;;;;;;4994531;28;20038;-78
2021/03/26 03:38:48;;;;;;;14.80;5.60;;;;;;;;;;4996376;28;20141;-77
2021/03/26 03:41:16;;;;;;;18.40;6.00;;;;;;;;;;5006286;28;20104;-78
2021/03/26 03:43:51;;;;;;;13.05;5.03;;;;;;;;;;5024253;28;20034;-78
2021/03/26 03:46:20;;;;;;;15.52;5.88;;;;;;;;;;5006637;28;20046;-78
2021/03/26 03:48:46;;;;;;;16.05;5.85;;;;;;;;;;5009919;28;20053;-78
2021/03/26 03:51:19;;;;;;;15.57;5.90;;;;;;;;;;5008037;28;20069;-78
2021/03/26 03:53:50;;;;;;;12.23;5.80;;;;;;;;;;5011725;28;20480;-78
2021/03/26 03:56:21;;;;;;;15.23;5.75;;;;;;;;;;5011309;28;20096;-78
2021/03/26 03:58:53;;;;;;;16.90;6.28;;;;;;;;;;5007103;28;20050;-78
2021/03/26 04:01:22;;;;;;;16.92;6.22;;;;;;;;;;5011045;28;20136;-78
2021/03/26 04:03:53;;;;;;;15.63;7.10;;;;;;;;;;5010903;28;20112;-78
2021/03/26 04:06:21;;;;;;;12.02;6.55;;;;;;;;;;5012144;28;20135;-78
2021/03/26 04:08:50;;;;;;;11.02;6.47;;;;;;;;;;5009632;28;20064;-78
2021/03/26 04:11:23;;;;;;;16.13;6.38;;;;;;;;;;5003168;28;20042;-78
2021/03/26 04:13:52;;;;;;;21.67;6.85;;;;;;;;;;5010294;28;20161;-78
2021/03/26 04:16:20;;;;;;;17.13;7.43;;;;;;;;;;5012711;28;20041;-78
2021/03/26 04:18:51;;;;;;;18.90;7.47;;;;;;;;;;5011201;28;20465;-78
2021/03/26 04:21:24;;;;;;;15.63;8.80;;;;;;;;;;5011437;28;20069;-78
2021/03/26 04:23:54;;;;;;;12.43;7.30;;;;;;;;;;5008012;28;20052;-78
2021/03/26 04:26:27;;;;;;;15.70;8.05;;;;;;;;;;5012216;28;20112;-78
2021/03/26 04:28:56;;;;;;;19.95;9.35;;;;;;;;;;5003690;28;20489;-78
2021/03/26 04:31:25;;;;;;;16.83;9.43;;;;;;;;;;5009418;28;20125;-78
2021/03/26 04:33:52;;;;;;;21.00;8.93;;;;;;;;;;5008398;28;20076;-78
2021/03/26 04:36:22;;;;;;;19.15;9.38;;;;;;;;;;5011006;28;20145;-78
2021/03/26 04:39:00;;;;;;;17.85;10.32;;;;;;;;;;5008033;28;20362;-78
2021/03/26 04:41:31;;;;;;;19.23;11.18;;;;;;;;;;5005531;28;20459;-78
2021/03/26 04:44:09;;;;;;;20.30;10.65;;;;;;;;;;5010620;28;20489;-78
2021/03/26 04:46:47;;;;;;;20.05;10.45;;;;;;;;;;5011692;28;20048;-78
2021/03/26 04:49:18;;;;;;;25.60;12.75;;;;;;;;;;5006215;28;20045;-78
2021/03/26 04:51:47;;;;;;;21.63;12.88;;;;;;;;;;5010893;28;20049;-78
2021/03/26 04:54:21;;;;;;;20.33;11.30;;;;;;;;;;5010654;28;20120;-78
2021/03/26 04:56:51;;;;;;;25.25;11.40;;;;;;;;;;5010026;28;20109;-78
2021/03/26 04:59:19;;;;;;;23.70;12.07;;;;;;;;;;5003706;28;20049;-78
2021/03/26 05:01:46;;;;;;;23.13;12.77;;;;;;;;;;5010849;28;20070;-77
2021/03/26 05:04:16;;;;;;;26.63;11.68;;;;;;;;;;5010382;28;20038;-78
2021/03/26 05:06:49;;;;;;;22.40;12.45;;;;;;;;;;5011743;28;20045;-78
2021/03/26 05:09:20;;;;;;;20.05;11.95;;;;;;;;;;5023931;28;20117;-78
2021/03/26 05:11:47;;;;;;;25.05;12.35;;;;;;;;;;5007740;28;20103;-78
2021/03/26 05:14:16;;;;;;;16.50;10.82;;;;;;;;;;5010604;28;20485;-78
2021/03/26 05:16:44;;;;;;;20.52;11.48;;;;;;;;;;5008481;28;20046;-78
2021/03/26 05:19:15;;;;;;;21.67;11.93;;;;;;;;;;5011202;28;20034;-78
2021/03/26 05:21:44;;;;;;;20.67;12.02;;;;;;;;;;5005927;28;20111;-78
2021/03/26 05:24:15;;;;;;;17.67;11.85;;;;;;;;;;5007767;28;20124;-78
2021/03/26 05:26:41;;;;;;;25.00;11.38;;;;;;;;;;5010672;28;20050;-78
2021/03/26 05:29:08;;;;;;;21.98;11.90;;;;;;;;;;5010752;28;20125;-78
2021/03/26 05:31:41;;;;;;;19.58;10.85;;;;;;;;;;5007806;28;20113;-77
2021/03/26 05:34:12;;;;;;;22.53;11.20;;;;;;;;;;5010273;28;20042;-78
2021/03/26 05:36:44;;;;;;;24.67;11.73;;;;;;;;;;5010768;28;20057;-78
2021/03/26 05:39:13;;;;;;;20.98;12.13;;;;;;;;;;5004571;28;20124;-78
2021/03/26 05:41:49;;;;;;;21.92;12.00;;;;;;;;;;5008134;28;20054;-78
2021/03/26 05:44:36;;;;;;;19.58;11.13;;;;;;;;;;5006422;28;20117;-78
2021/03/26 05:47:21;;;;;;;20.83;12.18;;;;;;;;;;5000546;28;20381;-78
2021/03/26 05:49:59;;;;;;;25.90;11.35;;;;;;;;;;5009965;28;20049;-76
2021/03/26 05:52:48;;;;;;;21.58;10.55;;;;;;;;;;5008792;28;20449;-77
2021/03/26 05:55:15;;;;;;;24.25;11.25;;;;;;;;;;5010350;28;20452;-78
2021/03/26 05:57:49;;;;;;;18.67;11.68;;;;;;;;;;5008357;28;20049;-78
2021/03/26 06:00:15;;;;;;;;;;;;;;;;;;5010041;28;20177;-78
2021/03/26 06:02:47;;;;;;;22.38;11.93;;;;;;;;;;5010276;28;19928;-77
2021/03/26 06:05:32;;;;;;;27.10;12.25;;;;;;;;;;5006592;28;20076;-77
2021/03/26 06:08:19;;;;;;;27.30;13.70;;;;;;;;;;4998905;28;20038;-77
2021/03/26 06:10:51;;;;;;;20.77;13.07;;;;;;;;;;5002288;28;20104;-77
2021/03/26 06:13:36;;;;;;;22.48;12.38;;;;;;;;;;4998625;28;20397;-78
2021/03/26 06:16:02;;;;;;;;;;;;;;;;;;5001270;28;20078;-79
2021/03/26 06:18:59;;;;;;;26.38;12.70;;;;;;;;;;4998483;28;19926;-79
2021/03/26 06:21:30;;;;;;;23.55;13.32;;;;;;;;;;5003604;28;20053;-78
2021/03/26 06:24:00;;;;;;;25.73;13.85;;;;;;;;;;5008008;28;20057;-79
2021/03/26 06:26:41;;;;;;;26.95;14.00;;;;;;;;;;5008411;28;20083;-79
2021/03/26 06:29:17;;;;;;;32.13;13.98;;;;;;;;;;5008255;28;20523;-80
2021/03/26 06:31:59;;;;;;;30.13;15.52;;;;;;;;;;5007796;28;20048;-78
2021/03/26 06:34:32;;;;;;;28.25;14.40;;;;;;;;;;5002817;28;20071;-78
2021/03/26 06:37:08;;;;;;;24.95;15.80;;;;;;;;;;5004790;28;20075;-81
2021/03/26 06:39:42;;;;;;;28.20;15.70;;;;;;;;;;5009945;28;20053;-80
2021/03/26 06:42:31;;;;;;;25.20;15.88;;;;;;;;;;5009012;28;20061;-80
2021/03/26 06:45:13;;;;;;;27.80;16.60;;;;;;;;;;5007259;28;20401;-80
2021/03/26 06:47:46;;;;;;;29.48;17.52;;;;;;;;;;5008655;28;20338;-80
2021/03/26 06:50:32;;;;;;;37.33;17.92;;;;;;;;;;5009439;28;20061;-80
2021/03/26 06:53:03;;;;;;;28.75;19.00;;;;;;;;;;5010477;28;20130;-80
2021/03/26 06:55:39;;;;;;;34.17;21.30;;;;;;;;;;5008700;28;20034;-79
2021/03/26 06:58:25;;;;;;;35.67;20.15;;;;;;;;;;5003301;28;20069;-79
2021/03/26 07:01:07;;;;;;;32.95;19.75;;;;;;;;;;5010309;28;20107;-79
2021/03/26 07:03:46;;;;;;;37.47;20.13;;;;;;;;;;5009626;28;20125;-79
2021/03/26 07:06:22;;;;;;;33.75;20.75;;;;;;;;;;5005286;28;20038;-79
2021/03/26 07:09:03;;;;;;;34.53;21.73;;;;;;;;;;5009850;28;20037;-80
2021/03/26 07:11:44;;;;;;;34.35;22.13;;;;;;;;;;5011697;28;20404;-80
2021/03/26 07:14:20;;;;;;;34.10;21.15;;;;;;;;;;5013742;28;20066;-79
2021/03/26 07:16:56;;;;;;;37.08;23.17;;;;;;;;;;5012227;28;20839;-80
2021/03/26 07:19:22;;;;;;;34.72;21.70;;;;;;;;;;5000296;28;20473;-80
2021/03/26 07:22:02;;;;;;;33.80;19.60;;;;;;;;;;5013712;28;20056;-80
2021/03/26 07:24:47;;;;;;;38.67;21.05;;;;;;;;;;5012986;28;20117;-80
2021/03/26 07:27:22;;;;;;;34.05;21.30;;;;;;;;;;5013410;28;20064;-80
2021/03/26 07:30:07;;;;;;;32.90;21.33;;;;;;;;;;5010932;28;20046;-79
2021/03/26 07:32:43;;;;;;;33.75;21.17;;;;;;;;;;5011423;28;20069;-77
2021/03/26 07:35:16;;;;;;;33.22;21.55;;;;;;;;;;5009480;28;20042;-73
2021/03/26 07:37:58;;;;;;;33.60;21.15;;;;;;;;;;5010316;28;20461;-77
2021/03/26 07:40:42;;;;;;;35.85;21.60;;;;;;;;;;5008172;28;20121;-78
2021/03/26 07:43:30;;;;;;;36.40;22.20;;;;;;;;;;5010431;28;20041;-78
2021/03/26 07:46:01;;;;;;;32.85;21.35;;;;;;;;;;5010434;28;20049;-77
2021/03/26 07:48:45;;;;;;;36.90;23.45;;;;;;;;;;5010826;28;20107;-78
2021/03/26 07:51:22;;;;;;;41.67;23.63;;;;;;;;;;5008338;28;20100;-78
2021/03/26 07:53:49;;;;;;;38.70;22.30;;;;;;;;;;5011954;28;20065;-78
2021/03/26 07:56:28;;;;;;;40.58;23.45;;;;;;;;;;5011865;28;20060;-78
2021/03/26 07:59:01;;;;;;;38.65;24.63;;;;;;;;;;5010963;28;20457;-77
2021/03/26 08:01:28;;;;;;;37.17;22.08;;;;;;;;;;5011997;28;20041;-78
2021/03/26 08:04:13;;;;;;;34.90;22.05;;;;;;;;;;5011399;28;20069;-78
2021/03/26 08:06:58;;;;;;;32.63;22.25;;;;;;;;;;5010900;28;20057;-78
2021/03/26 08:09:35;;;;;;;38.13;22.52;;;;;;;;;;4994804;28;20046;-78
2021/03/26 08:12:16;;;;;;;35.83;22.40;;;;;;;;;;5009664;28;20052;-79
2021/03/26 08:14:45;;;;;;;34.97;21.60;;;;;;;;;;5011639;28;20046;-79
2021/03/26 08:17:21;;;;;;;36.03;21.95;;;;;;;;;;5012063;28;20065;-78
2021/03/26 08:19:48;;;;;;;33.80;21.23;;;;;;;;;;5011512;28;20133;-78
2021/03/26 08:22:23;;;;;;;37.53;21.67;;;;;;;;;;5012063;28;20476;-78
2021/03/26 08:25:02;;;;;;;34.83;21.55;;;;;;;;;;5006285;28;20098;-78
2021/03/26 08:27:49;;;;;;;32.08;19.42;;;;;;;;;;5011417;28;20050;-78
2021/03/26 08:30:18;;;;;;;35.45;19.85;;;;;;;;;;5005728;28;20057;-77
2021/03/26 08:32:55;;;;;;;35.17;20.98;;;;;;;;;;5014705;28;20142;-77
2021/03/26 08:35:22;;;;;;;41.00;22.73;;;;;;;;;;5011452;28;20048;-77
2021/03/26 08:38:08;;;;;;;31.70;21.13;;;;;;;;;;5011832;28;20038;-78
2021/03/26 08:40:41;;;;;;;37.03;22.25;;;;;;;;;;5011232;28;20361;-78
2021/03/26 08:43:09;;;;;;;37.35;22.23;;;;;;;;;;5012108;28;20189;-78
2021/03/26 08:45:38;;;;;;;34.05;21.95;;;;;;;;;;5012187;28;20041;-78
2021/03/26 08:48:11;;;;;;;32.45;20.48;;;;;;;;;;5011031;28;20045;-78
2021/03/26 08:50:37;;;;;;;32.00;21.80;;;;;;;;;;5012136;28;20049;-78
2021/03/26 08:53:11;;;;;;;37.33;21.88;;;;;;;;;;5010389;28;20073;-77
2021/03/26 08:55:41;;;;;;;34.95;21.63;;;;;;;;;;5011303;28;20196;-78
2021/03/26 08:58:20;;;;;;;33.67;22.05;;;;;;;;;;5011831;28;20112;-78
2021/03/26 09:00:48;;;;;;;35.15;22.40;;;;;;;;;;5011974;28;20056;-78
2021/03/26 09:03:14;;;;;;;32.97;20.35;;;;;;;;;;5011192;28;20042;-78
2021/03/26 09:05:57;;;;;;;40.53;22.13;;;;;;;;;;5011819;28;20062;-78
2021/03/26 09:08:36;;;;;;;40.33;21.85;;;;;;;;;;5011685;28;20046;-78
2021/03/26 09:11:27;;;;;;;38.40;22.27;;;;;;;;;;5010904;28;20050;-78
2021/03/26 09:14:07;;;;;;;37.17;21.75;;;;;;;;;;5011677;28;20046;-78
2021/03/26 09:16:36;;;;;;;36.08;22.08;;;;;;;;;;5011196;28;20123;-78
2021/03/26 09:19:17;;;;;;;32.65;20.10;;;;;;;;;;5011761;28;20057;-78
2021/03/26 09:21:52;;;;;;;39.63;22.27;;;;;;;;;;5011708;28;20045;-78
2021/03/26 09:24:24;;;;;;;32.53;20.45;;;;;;;;;;5010766;28;20065;-78
2021/03/26 09:27:02;;;;;;;32.20;19.88;;;;;;;;;;5011752;28;20076;-78
2021/03/26 09:29:34;;;;;;;31.65;19.50;;;;;;;;;;5011125;28;20409;-78
2021/03/26 09:32:12;;;;;;;29.35;19.15;;;;;;;;;;5008699;28;20070;-78
2021/03/26 09:34:41;;;;;;;33.25;18.95;;;;;;;;;;5011285;28;20128;-78
2021/03/26 09:37:20;;;;;;;28.67;17.73;;;;;;;;;;5010772;28;20444;-78
2021/03/26 09:39:49;;;;;;;30.02;18.05;;;;;;;;;;5011516;28;20046;-78
2021/03/26 09:42:19;;;;;;;29.25;17.30;;;;;;;;;;5011576;28;20143;-78
2021/03/26 09:44:58;;;;;;;29.13;16.63;;;;;;;;;;5010575;28;20064;-78
2021/03/26 09:47:28;;;;;;;26.45;16.45;;;;;;;;;;5011162;28;20054;-78
2021/03/26 09:50:04;;;;;;;32.95;16.73;;;;;;;;;;5010710;28;20152;-78
2021/03/26 09:52:32;;;;;;;24.48;14.82;;;;;;;;;;5010304;28;20515;-78
2021/03/26 09:55:05;;;;;;;26.00;16.63;;;;;;;;;;5010876;28;20112;-78
2021/03/26 09:57:51;;;;;;;25.88;15.43;;;;;;;;;;5011152;28;20472;-78
2021/03/26 10:00:22;;;;;;;28.50;15.88;;;;;;;;;;5010534;28;20044;-78
2021/03/26 10:03:06;;;;;;;24.25;14.50;;;;;;;;;;5010966;28;20481;-78
2021/03/26 10:05:32;;;;;;;;;;;;;;;;;;5010808;28;20445;-79
2021/03/26 10:08:07;;;;;;;24.60;14.35;;;;;;;;;;5011422;28;20008;-80
2021/03/26 10:13:11;;;;;;;24.25;14.15;;;;;;;;;;5010471;28;20085;-79
2021/03/26 10:15:40;;;;;;;22.80;14.75;;;;;;;;;;5010984;28;20054;-80
2021/03/26 10:18:10;;;;;;;21.88;13.65;;;;;;;;;;5010947;28;20509;-80
2021/03/26 10:20:51;;;;;;;22.58;13.88;;;;;;;;;;5010119;28;20042;-80
2021/03/26 10:23:37;;;;;;;20.77;12.70;;;;;;;;;;5011425;28;20068;-79
2021/03/26 10:26:06;;;;;;;23.17;12.35;;;;;;;;;;5008511;28;20049;-79
2021/03/26 10:28:33;;;;;;;18.50;11.88;;;;;;;;;;5010637;28;20061;-80
2021/03/26 10:31:04;;;;;;;16.50;9.82;;;;;;;;;;5010483;28;20038;-80
2021/03/26 10:33:32;;;;;;;20.02;11.20;;;;;;;;;;5009556;28;20050;-80
2021/03/26 10:36:02;;;;;;;20.63;11.77;;;;;;;;;;5011001;28;20133;-80
2021/03/26 10:38:38;;;;;;;18.73;10.93;;;;;;;;;;5010709;28;20504;-80
2021/03/26 10:41:10;;;;;;;25.15;12.95;;;;;;;;;;5009751;28;20053;-80
2021/03/26 10:43:41;;;;;;;20.02;11.35;;;;;;;;;;5013071;28;20046;-80
2021/03/26 10:46:09;;;;;;;23.45;12.93;;;;;;;;;;5014102;28;20486;-80
2021/03/26 10:48:58;;;;;;;22.35;11.90;;;;;;;;;;5013428;28;20120;-80
2021/03/26 10:51:26;;;;;;;20.48;11.07;;;;;;;;;;5014222;28;20181;-80
2021/03/26 10:54:04;;;;;;;18.83;10.25;;;;;;;;;;5014607;28;20547;-80
2021/03/26 10:56:42;;;;;;;17.23;9.93;;;;;;;;;;5013427;28;20046;-80
2021/03/26 10:59:24;;;;;;;20.58;10.98;;;;;;;;;;5014285;28;20045;-80
2021/03/26 11:01:52;;;;;;;17.17;10.48;;;;;;;;;;5011820;28;20045;-80
2021/03/26 11:04:35;;;;;;;20.08;11.05;;;;;;;;;;5014390;28;20049;-80
2021/03/26 11:07:05;;;;;;;19.35;10.15;;;;;;;;;;5014001;28;20136;-80
2021/03/26 11:09:41;;;;;;;16.73;10.18;;;;;;;;;;5013052;28;20113;-80
2021/03/26 11:12:15;;;;;;;17.88;10.10;;;;;;;;;;5013688;28;20351;-80
2021/03/26 11:14:52;;;;;;;22.27;9.55;;;;;;;;;;5014241;28;20049;-80
2021/03/26 11:17:22;;;;;;;14.65;8.50;;;;;;;;;;5013153;28;20046;-80
2021/03/26 11:20:08;;;;;;;17.35;10.15;;;;;;;;;;5013971;28;20056;-80
2021/03/26 11:22:36;;;;;;;19.55;9.75;;;;;;;;;;5013119;28;20108;-81
2021/03/26 11:25:02;;;;;;;17.83;10.50;;;;;;;;;;5013890;28;20038;-80
2021/03/26 11:27:31;;;;;;;17.33;10.63;;;;;;;;;;5014129;28;20066;-79
2021/03/26 11:30:18;;;;;;;19.27;10.00;;;;;;;;;;5009787;28;20045;-81
2021/03/26 11:32:47;;;;;;;16.17;9.32;;;;;;;;;;5007503;28;20529;-85
2021/03/26 11:35:17;;;;;;;18.95;10.45;;;;;;;;;;5013741;28;20044;-82
2021/03/26 11:37:48;;;;;;;16.10;8.98;;;;;;;;;;5000900;28;20121;-80
2021/03/26 11:40:18;;;;;;;15.45;8.00;;;;;;;;;;5013594;28;20396;-80
2021/03/26 11:42:47;;;;;;;17.80;8.30;;;;;;;;;;4999721;28;20054;-82
2021/03/26 11:45:24;;;;;;;13.90;8.30;;;;;;;;;;5012583;28;20120;-80
2021/03/26 11:48:14;;;;;;;17.05;9.15;;;;;;;;;;5012544;28;20141;-80
2021/03/26 11:50:44;;;;;;;16.67;10.18;;;;;;;;;;5006581;28;20148;-80
2021/03/26 11:53:25;;;;;;;16.83;9.73;;;;;;;;;;5009453;28;20073;-80
2021/03/26 11:55:58;;;;;;;17.05;9.35;;;;;;;;;;5010415;28;20086;-80
2021/03/26 11:58:29;;;;;;;21.13;9.93;;;;;;;;;;5009642;28;20058;-80
2021/03/26 12:00:57;;;;;;;19.20;9.75;;;;;;;;;;5009911;28;20048;-80
2021/03/26 12:03:34;;;;;;;20.08;9.70;;;;;;;;;;5009282;28;20066;-80
2021/03/26 12:06:04;;;;;;;15.45;9.10;;;;;;;;;;5005494;28;20050;-81
2021/03/26 12:08:34;;;;;;;17.70;9.45;;;;;;;;;;5009916;28;20115;-80
2021/03/26 12:11:07;;;;;;;20.35;9.68;;;;;;;;;;5009267;28;20048;-81
2021/03/26 12:13:35;;;;;;;;;;;;;;;;;;5004197;28;20048;-82
2021/03/26 12:16:14;;;;;;;20.40;10.18;;;;;;;;;;5008318;28;19921;-84
2021/03/26 12:18:42;;;;;;;16.15;9.80;;;;;;;;;;5011888;28;20060;-84
2021/03/26 12:21:25;;;;;;;19.92;10.55;;;;;;;;;;5012524;28;20493;-84
2021/03/26 12:23:58;;;;;;;15.30;9.35;;;;;;;;;;5008308;28;20050;-84
2021/03/26 12:26:27;;;;;;;18.40;9.95;;;;;;;;;;5011855;28;20034;-84
2021/03/26 12:29:14;;;;;;;14.55;8.73;;;;;;;;;;5012416;28;20058;-85
2021/03/26 12:31:45;;;;;;;15.15;8.25;;;;;;;;;;5012465;28;20077;-84
2021/03/26 12:34:23;;;;;;;16.38;8.88;;;;;;;;;;5006271;28;20108;-85
2021/03/26 12:36:55;;;;;;;15.38;8.38;;;;;;;;;;5002422;28;20053;-85
2021/03/26 12:39:36;;;;;;;14.40;7.30;;;;;;;;;;5000793;28;20450;-84
2021/03/26 12:42:15;;;;;;;13.35;6.32;;;;;;;;;;5005007;28;20140;-84
2021/03/26 12:44:53;;;;;;;14.57;6.93;;;;;;;;;;5009597;28;20053;-83
2021/03/26 12:47:22;;;;;;;14.93;6.47;;;;;;;;;;5010419;28;20496;-84
2021/03/26 12:49:56;;;;;;;13.00;5.72;;;;;;;;;;5012219;28;20090;-84
2021/03/26 12:52:22;;;;;;;;;;;;;;;;;;5012662;28;20049;-84
2021/03/26 12:54:59;;;;;;;13.10;5.72;;;;;;;;;;5011551;28;19932;-84
2021/03/26 12:57:30;;;;;;;10.55;5.38;;;;;;;;;;4999756;28;20564;-84
2021/03/26 13:00:01;;;;;;;13.38;6.00;;;;;;;;;;5011696;28;20052;-83
2021/03/26 13:02:34;;;;;;;10.63;5.05;;;;;;;;;;5023254;28;20061;-84
2021/03/26 13:05:12;;;;;;;11.98;4.82;;;;;;;;;;5005721;28;20341;-84
2021/03/26 13:07:43;;;;;;;8.90;4.90;;;;;;;;;;5011062;28;20497;-84
2021/03/26 13:10:22;;;;;;;9.07;4.78;;;;;;;;;;5011260;28;20049;-84
2021/03/26 13:12:49;;;;;;;9.45;4.72;;;;;;;;;;5011645;28;20496;-85
2021/03/26 13:15:24;;;;;;;12.13;4.32;;;;;;;;;;5010693;28;20049;-85
2021/03/26 13:18:01;;;;;;;10.27;4.80;;;;;;;;;;5003192;28;20050;-82
2021/03/26 13:20:27;;;;;;;12.57;5.47;;;;;;;;;;4990643;28;20077;-82
2021/03/26 13:22:56;;;;;;;9.93;4.38;;;;;;;;;;5007015;28;20050;-82
2021/03/26 13:25:26;;;;;;;12.88;4.28;;;;;;;;;;5000470;28;20124;-81
2021/03/26 13:28:05;;;;;;;9.25;4.22;;;;;;;;;;4996348;28;20499;-82
2021/03/26 13:30:33;;;;;;;10.30;4.55;;;;;;;;;;4996070;28;20124;-82
2021/03/26 13:33:00;;;;;;;13.23;4.60;;;;;;;;;;4992009;28;20107;-81
2021/03/26 13:35:30;;;;;;;10.63;4.63;;;;;;;;;;4999062;28;21961;-82
2021/03/26 13:38:01;;;;;;;11.20;4.95;;;;;;;;;;4996459;28;20061;-82
2021/03/26 13:40:28;;;;;;;10.13;4.55;;;;;;;;;;4997171;28;20199;-82
2021/03/26 13:43:17;;;;;;;9.10;5.72;;;;;;;;;;5004162;28;20090;-81
2021/03/26 13:45:45;;;;;;;11.65;4.70;;;;;;;;;;5004867;28;20088;-82
2021/03/26 13:48:16;;;;;;;13.90;5.68;;;;;;;;;;5007564;28;20069;-82
2021/03/26 13:50:55;;;;;;;10.02;5.38;;;;;;;;;;5005631;28;20053;-82
2021/03/26 13:53:26;;;;;;;11.50;6.03;;;;;;;;;;5007387;28;20042;-82
2021/03/26 13:55:55;;;;;;;9.60;4.95;;;;;;;;;;5006718;28;20064;-82
2021/03/26 13:58:25;;;;;;;11.48;5.85;;;;;;;;;;5003946;28;20073;-82
2021/03/26 14:01:04;;;;;;;14.57;6.03;;;;;;;;;;5003413;28;20073;-81
2021/03/26 14:03:40;;;;;;;14.30;6.18;;;;;;;;;;5006084;28;20038;-82
2021/03/26 14:06:08;;;;;;;11.63;6.20;;;;;;;;;;5007228;28;21978;-82
2021/03/26 14:08:43;;;;;;;11.02;5.88;;;;;;;;;;5007293;28;20038;-82
2021/03/26 14:11:15;;;;;;;14.15;5.53;;;;;;;;;;5006777;28;20080;-81
2021/03/26 14:13:47;;;;;;;13.90;5.90;;;;;;;;;;5006472;28;20050;-82
2021/03/26 14:16:21;;;;;;;9.52;5.65;;;;;;;;;;5007815;28;20119;-82
2021/03/26 14:18:52;;;;;;;11.30;5.50;;;;;;;;;;5008711;28;20125;-81
2021/03/26 14:21:22;;;;;;;9.27;6.13;;;;;;;;;;5009295;28;20504;-82
2021/03/26 14:23:52;;;;;;;11.82;5.80;;;;;;;;;;5012164;28;20136;-82
2021/03/26 14:26:23;;;;;;;10.18;5.80;;;;;;;;;;4992228;28;20045;-82
2021/03/26 14:28:53;;;;;;;10.68;5.43;;;;;;;;;;4997133;28;20576;-82
2021/03/26 14:31:23;;;;;;;11.05;5.25;;;;;;;;;;4992059;28;20053;-82
2021/03/26 14:33:57;;;;;;;10.35;5.20;;;;;;;;;;4991644;28;20042;-82
2021/03/26 14:36:27;;;;;;;12.30;6.10;;;;;;;;;;4991687;28;20472;-82
2021/03/26 14:38:55;;;;;;;9.50;5.45;;;;;;;;;;5003886;28;20096;-82
2021/03/26 14:41:25;;;;;;;17.95;5.90;;;;;;;;;;5005052;28;20037;-82
2021/03/26 14:43:56;;;;;;;10.65;5.30;;;;;;;;;;5007369;28;20149;-82
2021/03/26 14:46:22;;;;;;;12.80;5.05;;;;;;;;;;5007079;28;20053;-82
2021/03/26 14:48:51;;;;;;;9.00;5.07;;;;;;;;;;5010828;28;20033;-82
2021/03/26 14:51:21;;;;;;;9.32;5.40;;;;;;;;;;5008749;28;20050;-81
2021/03/26 14:53:51;;;;;;;12.43;5.82;;;;;;;;;;5010097;28;20437;-81
2021/03/26 14:56:23;;;;;;;12.07;5.60;;;;;;;;;;5010883;28;20129;-82
2021/03/26 14:58:51;;;;;;;12.00;5.30;;;;;;;;;;5011436;28;20042;-82
2021/03/26 15:01:29;;;;;;;9.95;5.75;;;;;;;;;;5008271;28;20081;-84